sensor_id;sensor_type;location;lat;lon;timestamp;pressure;altitude;pressure_sealevel;temperature;humidity
13387;BME280;6763;48.524;9.044;2022-12-29T00:01:43;97399.06;;;9.09;55.53
13387;BME280;6763;48.524;9.044;2022-12-29T00:04:11;97399.81;;;9.15;55.74
13387;BME280;6763;48.524;9.044;2022-12-29T00:06:37;97404.84;;;9.21;55.93
13387;BME280;6763;48.524;9.044;2022-12-29T00:09:02;97401.34;;;9.25;55.85
13387;BME280;6763;48.524;9.044;2022-12-29T00:11:28;97387.38;;;9.35;56.08
13387;BME280;6763;48.524;9.044;2022-12-29T00:13:53;97387.16;;;9.46;55.41
13387;BME280;6763;48.524;9.044;2022-12-29T00:16:39;97374.94;;;9.54;55.67
13387;BME280;6763;48.524;9.044;2022-12-29T00:19:05;97368.81;;;9.58;55.51
13387;BME280;6763;48.524;9.044;2022-12-29T00:21:30;97361.81;;;9.63;55.29
13387;BME280;6763;48.524;9.044;2022-12-29T00:24:19;97359.09;;;9.69;55.52
13387;BME280;6763;48.524;9.044;2022-12-29T00:29:50;97360.00;;;9.67;54.64
13387;BME280;6763;48.524;9.044;2022-12-29T00:32:34;97372.94;;;9.65;55.15
13387;BME280;6763;48.524;9.044;2022-12-29T00:35:28;97368.63;;;9.66;55.39
13387;BME280;6763;48.524;9.044;2022-12-29T00:37:55;97368.50;;;9.72;55.64
13387;BME280;6763;48.524;9.044;2022-12-29T00:40:40;97362.44;;;9.74;55.00
13387;BME280;6763;48.524;9.044;2022-12-29T00:43:25;97361.47;;;9.78;54.97
13387;BME280;6763;48.524;9.044;2022-12-29T00:46:08;97353.56;;;9.84;55.33
13387;BME280;6763;48.524;9.044;2022-12-29T00:48:34;97359.50;;;9.89;55.21
13387;BME280;6763;48.524;9.044;2022-12-29T00:51:18;97355.06;;;9.94;55.11
13387;BME280;6763;48.524;9.044;2022-12-29T00:53:43;97363.59;;;9.98;54.85
13387;BME280;6763;48.524;9.044;2022-12-29T00:56:09;97360.06;;;10.02;54.97
13387;BME280;6763;48.524;9.044;2022-12-29T00:58:34;97352.19;;;10.07;54.41
13387;BME280;6763;48.524;9.044;2022-12-29T01:01:04;97347.00;;;10.07;53.76
13387;BME280;6763;48.524;9.044;2022-12-29T01:03:30;97357.41;;;10.05;53.95
13387;BME280;6763;48.524;9.044;2022-12-29T01:05:56;97349.75;;;10.01;54.07
13387;BME280;6763;48.524;9.044;2022-12-29T01:08:21;97348.84;;;10.02;54.58
13387;BME280;6763;48.524;9.044;2022-12-29T01:10:46;97342.94;;;9.96;54.07
13387;BME280;6763;48.524;9.044;2022-12-29T01:13:22;97349.84;;;9.96;54.36
13387;BME280;6763;48.524;9.044;2022-12-29T01:15:52;97347.38;;;9.91;54.29
13387;BME280;6763;48.524;9.044;2022-12-29T01:18:18;97343.09;;;9.90;54.18
13387;BME280;6763;48.524;9.044;2022-12-29T01:20:43;97350.00;;;9.90;54.61
13387;BME280;6763;48.524;9.044;2022-12-29T01:23:09;97350.94;;;9.87;54.31
13387;BME280;6763;48.524;9.044;2022-12-29T01:25:34;97346.63;;;9.86;54.68
13387;BME280;6763;48.524;9.044;2022-12-29T01:27:59;97355.19;;;9.88;54.32
13387;BME280;6763;48.524;9.044;2022-12-29T01:30:25;97348.34;;;9.86;54.33
13387;BME280;6763;48.524;9.044;2022-12-29T01:32:50;97367.19;;;9.91;54.72
13387;BME280;6763;48.524;9.044;2022-12-29T01:35:15;97356.78;;;9.95;54.79
13387;BME280;6763;48.524;9.044;2022-12-29T01:37:41;97358.41;;;9.99;54.60
13387;BME280;6763;48.524;9.044;2022-12-29T01:40:06;97367.69;;;10.07;54.79
13387;BME280;6763;48.524;9.044;2022-12-29T01:42:32;97360.69;;;10.12;54.35
13387;BME280;6763;48.524;9.044;2022-12-29T01:45:00;97362.38;;;10.14;54.29
13387;BME280;6763;48.524;9.044;2022-12-29T01:47:43;97366.59;;;10.18;54.04
13387;BME280;6763;48.524;9.044;2022-12-29T01:50:17;97367.47;;;10.19;54.28
13387;BME280;6763;48.524;9.044;2022-12-29T01:52:51;97356.03;;;10.27;54.68
13387;BME280;6763;48.524;9.044;2022-12-29T01:55:19;97350.75;;;10.32;54.58
13387;BME280;6763;48.524;9.044;2022-12-29T01:57:47;97355.88;;;10.35;54.61
13387;BME280;6763;48.524;9.044;2022-12-29T02:00:14;97355.69;;;10.41;54.72
13387;BME280;6763;48.524;9.044;2022-12-29T02:02:52;97355.34;;;10.54;54.46
13387;BME280;6763;48.524;9.044;2022-12-29T02:05:27;97337.69;;;10.70;54.37
13387;BME280;6763;48.524;9.044;2022-12-29T02:07:53;97346.72;;;10.88;54.38
13387;BME280;6763;48.524;9.044;2022-12-29T02:10:21;97350.44;;;11.08;53.63
13387;BME280;6763;48.524;9.044;2022-12-29T02:12:48;97341.19;;;11.31;53.01
13387;BME280;6763;48.524;9.044;2022-12-29T02:15:14;97335.59;;;11.75;51.60
13387;BME280;6763;48.524;9.044;2022-12-29T02:20:56;97336.97;;;12.65;47.90
13387;BME280;6763;48.524;9.044;2022-12-29T02:32:29;97322.03;;;14.11;43.74
13387;BME280;6763;48.524;9.044;2022-12-29T02:34:53;97319.81;;;14.44;42.91
13387;BME280;6763;48.524;9.044;2022-12-29T02:42:42;97310.06;;;15.09;40.60
13387;BME280;6763;48.524;9.044;2022-12-29T02:45:47;97312.09;;;15.21;39.62
13387;BME280;6763;48.524;9.044;2022-12-29T02:48:12;97312.97;;;15.40;39.50
13387;BME280;6763;48.524;9.044;2022-12-29T02:50:51;97296.03;;;15.50;38.77
13387;BME280;6763;48.524;9.044;2022-12-29T02:53:20;97297.16;;;15.64;38.85
13387;BME280;6763;48.524;9.044;2022-12-29T02:56:06;97299.69;;;15.65;38.31
13387;BME280;6763;48.524;9.044;2022-12-29T02:58:31;97299.41;;;15.71;37.96
13387;BME280;6763;48.524;9.044;2022-12-29T03:07:13;97312.34;;;15.91;37.28
13387;BME280;6763;48.524;9.044;2022-12-29T03:10:07;97305.75;;;15.84;37.15
13387;BME280;6763;48.524;9.044;2022-12-29T03:18:59;97305.16;;;15.96;37.11
13387;BME280;6763;48.524;9.044;2022-12-29T03:24:22;97297.56;;;16.09;37.22
13387;BME280;6763;48.524;9.044;2022-12-29T03:26:50;97288.13;;;16.06;37.08
13387;BME280;6763;48.524;9.044;2022-12-29T03:29:18;97290.47;;;15.94;37.06
13387;BME280;6763;48.524;9.044;2022-12-29T03:31:47;97287.66;;;15.98;36.82
13387;BME280;6763;48.524;9.044;2022-12-29T03:34:13;97292.59;;;16.04;37.02
13387;BME280;6763;48.524;9.044;2022-12-29T03:36:46;97280.88;;;16.13;37.03
13387;BME280;6763;48.524;9.044;2022-12-29T03:39:13;97289.16;;;16.21;36.85
13387;BME280;6763;48.524;9.044;2022-12-29T03:41:43;97282.78;;;16.27;36.75
13387;BME280;6763;48.524;9.044;2022-12-29T03:44:10;97279.72;;;16.36;36.79
13387;BME280;6763;48.524;9.044;2022-12-29T03:46:36;97273.56;;;16.37;36.88
13387;BME280;6763;48.524;9.044;2022-12-29T03:49:01;97277.50;;;16.28;36.99
13387;BME280;6763;48.524;9.044;2022-12-29T03:51:26;97276.03;;;16.23;37.21
13387;BME280;6763;48.524;9.044;2022-12-29T03:53:52;97276.94;;;16.22;37.38
13387;BME280;6763;48.524;9.044;2022-12-29T03:56:17;97274.03;;;16.28;37.19
13387;BME280;6763;48.524;9.044;2022-12-29T03:58:42;97266.53;;;16.39;37.25
13387;BME280;6763;48.524;9.044;2022-12-29T04:01:08;97263.81;;;16.40;37.11
13387;BME280;6763;48.524;9.044;2022-12-29T04:03:33;97261.28;;;16.39;37.30
13387;BME280;6763;48.524;9.044;2022-12-29T04:05:59;97257.22;;;16.33;37.33
13387;BME280;6763;48.524;9.044;2022-12-29T04:08:24;97265.44;;;16.26;37.32
13387;BME280;6763;48.524;9.044;2022-12-29T04:10:49;97269.19;;;16.20;37.58
13387;BME280;6763;48.524;9.044;2022-12-29T04:13:15;97269.34;;;16.17;37.74
13387;BME280;6763;48.524;9.044;2022-12-29T04:15:42;97274.78;;;16.12;37.51
13387;BME280;6763;48.524;9.044;2022-12-29T04:18:08;97272.31;;;16.09;37.52
13387;BME280;6763;48.524;9.044;2022-12-29T04:20:33;97264.72;;;16.05;37.67
13387;BME280;6763;48.524;9.044;2022-12-29T04:23:17;97271.22;;;15.96;37.84
13387;BME280;6763;48.524;9.044;2022-12-29T04:25:45;97271.44;;;15.92;38.02
13387;BME280;6763;48.524;9.044;2022-12-29T04:28:12;97276.19;;;15.84;38.14
13387;BME280;6763;48.524;9.044;2022-12-29T04:30:37;97284.38;;;15.76;38.55
13387;BME280;6763;48.524;9.044;2022-12-29T04:33:03;97296.03;;;15.69;38.57
13387;BME280;6763;48.524;9.044;2022-12-29T04:35:28;97291.13;;;15.62;38.85
13387;BME280;6763;48.524;9.044;2022-12-29T04:37:53;97283.03;;;15.49;39.36
13387;BME280;6763;48.524;9.044;2022-12-29T04:40:19;97272.25;;;15.38;39.43
13387;BME280;6763;48.524;9.044;2022-12-29T04:42:44;97271.44;;;15.36;39.22
13387;BME280;6763;48.524;9.044;2022-12-29T04:45:10;97270.75;;;15.32;39.26
13387;BME280;6763;48.524;9.044;2022-12-29T04:47:35;97258.56;;;15.33;39.01
13387;BME280;6763;48.524;9.044;2022-12-29T04:50:00;97272.38;;;15.35;38.94
13387;BME280;6763;48.524;9.044;2022-12-29T04:52:26;97272.59;;;15.49;38.91
13387;BME280;6763;48.524;9.044;2022-12-29T04:54:51;97271.34;;;15.58;38.46
13387;BME280;6763;48.524;9.044;2022-12-29T04:57:16;97288.41;;;15.65;38.27
13387;BME280;6763;48.524;9.044;2022-12-29T04:59:42;97283.00;;;15.69;38.64
13387;BME280;6763;48.524;9.044;2022-12-29T05:02:07;97290.44;;;15.77;38.13
13387;BME280;6763;48.524;9.044;2022-12-29T05:04:32;97293.56;;;15.85;37.98
13387;BME280;6763;48.524;9.044;2022-12-29T05:06:58;97295.94;;;15.89;38.20
13387;BME280;6763;48.524;9.044;2022-12-29T05:09:23;97299.31;;;15.91;38.15
13387;BME280;6763;48.524;9.044;2022-12-29T05:11:49;97300.22;;;15.90;38.05
13387;BME280;6763;48.524;9.044;2022-12-29T05:14:14;97299.44;;;15.88;38.26
13387;BME280;6763;48.524;9.044;2022-12-29T05:16:39;97302.19;;;15.85;37.99
13387;BME280;6763;48.524;9.044;2022-12-29T05:19:05;97294.69;;;15.79;38.27
13387;BME280;6763;48.524;9.044;2022-12-29T05:21:31;97291.81;;;15.67;38.57
13387;BME280;6763;48.524;9.044;2022-12-29T05:23:56;97286.28;;;15.54;38.89
13387;BME280;6763;48.524;9.044;2022-12-29T05:26:21;97292.94;;;15.41;38.96
13387;BME280;6763;48.524;9.044;2022-12-29T05:28:47;97300.13;;;15.36;39.15
13387;BME280;6763;48.524;9.044;2022-12-29T05:31:12;97304.72;;;15.31;39.30
13387;BME280;6763;48.524;9.044;2022-12-29T05:33:38;97303.09;;;15.28;39.31
13387;BME280;6763;48.524;9.044;2022-12-29T05:36:05;97307.59;;;15.25;39.49
13387;BME280;6763;48.524;9.044;2022-12-29T05:38:30;97312.03;;;15.23;39.45
13387;BME280;6763;48.524;9.044;2022-12-29T05:40:56;97305.00;;;15.25;39.22
13387;BME280;6763;48.524;9.044;2022-12-29T05:43:21;97297.69;;;15.33;39.35
13387;BME280;6763;48.524;9.044;2022-12-29T05:45:48;97304.31;;;15.40;39.08
13387;BME280;6763;48.524;9.044;2022-12-29T05:48:14;97288.53;;;15.43;39.12
13387;BME280;6763;48.524;9.044;2022-12-29T05:50:39;97290.19;;;15.45;39.16
13387;BME280;6763;48.524;9.044;2022-12-29T05:53:05;97288.13;;;15.52;39.06
13387;BME280;6763;48.524;9.044;2022-12-29T05:55:30;97280.03;;;15.58;38.84
13387;BME280;6763;48.524;9.044;2022-12-29T05:57:56;97284.78;;;15.67;38.66
13387;BME280;6763;48.524;9.044;2022-12-29T06:00:21;97280.16;;;15.74;38.83
13387;BME280;6763;48.524;9.044;2022-12-29T06:02:47;97279.06;;;15.78;38.78
13387;BME280;6763;48.524;9.044;2022-12-29T06:05:12;97281.53;;;15.81;38.70
13387;BME280;6763;48.524;9.044;2022-12-29T06:07:37;97283.13;;;15.85;38.37
13387;BME280;6763;48.524;9.044;2022-12-29T06:10:04;97278.56;;;15.88;38.54
13387;BME280;6763;48.524;9.044;2022-12-29T06:12:30;97277.72;;;15.88;38.31
13387;BME280;6763;48.524;9.044;2022-12-29T06:14:55;97265.75;;;15.84;38.59
13387;BME280;6763;48.524;9.044;2022-12-29T06:17:21;97268.50;;;15.81;38.84
13387;BME280;6763;48.524;9.044;2022-12-29T06:19:46;97256.81;;;15.71;39.04
13387;BME280;6763;48.524;9.044;2022-12-29T06:22:11;97263.38;;;15.61;39.34
13387;BME280;6763;48.524;9.044;2022-12-29T06:24:37;97258.75;;;15.48;39.31
13387;BME280;6763;48.524;9.044;2022-12-29T06:27:03;97262.72;;;15.37;39.83
13387;BME280;6763;48.524;9.044;2022-12-29T06:29:28;97266.53;;;15.30;39.85
13387;BME280;6763;48.524;9.044;2022-12-29T06:31:54;97252.88;;;15.25;40.24
13387;BME280;6763;48.524;9.044;2022-12-29T06:34:25;97266.81;;;15.24;40.17
13387;BME280;6763;48.524;9.044;2022-12-29T06:36:51;97272.78;;;15.26;40.48
13387;BME280;6763;48.524;9.044;2022-12-29T06:39:16;97269.97;;;15.30;40.18
13387;BME280;6763;48.524;9.044;2022-12-29T06:41:41;97276.84;;;15.51;39.90
13387;BME280;6763;48.524;9.044;2022-12-29T06:44:06;97271.75;;;15.67;39.54
13387;BME280;6763;48.524;9.044;2022-12-29T06:46:32;97275.56;;;15.79;39.44
13387;BME280;6763;48.524;9.044;2022-12-29T06:48:57;97274.81;;;15.94;38.97
13387;BME280;6763;48.524;9.044;2022-12-29T06:51:22;97263.03;;;16.04;38.85
13387;BME280;6763;48.524;9.044;2022-12-29T06:53:48;97268.47;;;16.17;38.57
13387;BME280;6763;48.524;9.044;2022-12-29T06:56:13;97265.44;;;16.26;38.37
13387;BME280;6763;48.524;9.044;2022-12-29T06:58:38;97255.59;;;16.31;38.65
13387;BME280;6763;48.524;9.044;2022-12-29T07:01:04;97264.19;;;16.33;38.29
13387;BME280;6763;48.524;9.044;2022-12-29T07:03:29;97251.00;;;16.36;38.30
13387;BME280;6763;48.524;9.044;2022-12-29T07:05:55;97259.59;;;16.38;38.39
13387;BME280;6763;48.524;9.044;2022-12-29T07:08:20;97255.13;;;16.40;38.69
13387;BME280;6763;48.524;9.044;2022-12-29T07:10:46;97256.97;;;16.38;38.61
13387;BME280;6763;48.524;9.044;2022-12-29T07:13:11;97253.66;;;16.34;38.79
13387;BME280;6763;48.524;9.044;2022-12-29T07:15:37;97252.28;;;16.27;38.85
13387;BME280;6763;48.524;9.044;2022-12-29T07:18:03;97256.38;;;16.16;39.40
13387;BME280;6763;48.524;9.044;2022-12-29T07:20:29;97263.03;;;16.04;39.47
13387;BME280;6763;48.524;9.044;2022-12-29T07:22:54;97258.41;;;15.92;39.78
13387;BME280;6763;48.524;9.044;2022-12-29T07:25:20;97270.25;;;15.80;39.82
13387;BME280;6763;48.524;9.044;2022-12-29T07:27:45;97260.31;;;15.70;40.04
13387;BME280;6763;48.524;9.044;2022-12-29T07:30:11;97250.19;;;15.64;40.49
13387;BME280;6763;48.524;9.044;2022-12-29T07:32:36;97258.16;;;15.61;40.60
13387;BME280;6763;48.524;9.044;2022-12-29T07:35:02;97262.66;;;15.57;40.74
13387;BME280;6763;48.524;9.044;2022-12-29T07:37:28;97264.28;;;15.60;40.79
13387;BME280;6763;48.524;9.044;2022-12-29T07:39:53;97261.13;;;15.72;40.40
13387;BME280;6763;48.524;9.044;2022-12-29T07:42:19;97259.69;;;15.83;40.46
13387;BME280;6763;48.524;9.044;2022-12-29T07:44:44;97263.53;;;15.93;40.22
13387;BME280;6763;48.524;9.044;2022-12-29T07:47:09;97265.63;;;16.04;40.12
13387;BME280;6763;48.524;9.044;2022-12-29T07:49:35;97266.81;;;16.16;39.74
13387;BME280;6763;48.524;9.044;2022-12-29T07:52:00;97273.25;;;16.26;39.52
13387;BME280;6763;48.524;9.044;2022-12-29T07:54:25;97267.81;;;16.30;39.42
13387;BME280;6763;48.524;9.044;2022-12-29T07:56:51;97271.81;;;16.37;39.33
13387;BME280;6763;48.524;9.044;2022-12-29T07:59:16;97261.28;;;16.39;39.38
13387;BME280;6763;48.524;9.044;2022-12-29T08:01:42;97260.44;;;16.38;39.33
13387;BME280;6763;48.524;9.044;2022-12-29T08:04:08;97264.97;;;16.35;39.93
13387;BME280;6763;48.524;9.044;2022-12-29T08:06:33;97253.66;;;16.34;39.66
13387;BME280;6763;48.524;9.044;2022-12-29T08:08:59;97256.13;;;16.37;39.46
13387;BME280;6763;48.524;9.044;2022-12-29T08:11:26;97263.53;;;16.46;39.68
13387;BME280;6763;48.524;9.044;2022-12-29T08:13:51;97271.13;;;16.51;39.34
13387;BME280;6763;48.524;9.044;2022-12-29T08:16:17;97274.13;;;16.60;39.12
13387;BME280;6763;48.524;9.044;2022-12-29T08:18:42;97279.16;;;16.65;39.22
13387;BME280;6763;48.524;9.044;2022-12-29T08:21:07;97271.13;;;16.68;38.83
13387;BME280;6763;48.524;9.044;2022-12-29T08:23:33;97276.34;;;16.68;38.92
13387;BME280;6763;48.524;9.044;2022-12-29T08:25:59;97281.28;;;16.74;38.62
13387;BME280;6763;48.524;9.044;2022-12-29T08:28:25;97284.44;;;16.81;38.51
13387;BME280;6763;48.524;9.044;2022-12-29T08:30:51;97290.09;;;16.89;38.13
13387;BME280;6763;48.524;9.044;2022-12-29T08:33:16;97290.63;;;16.95;38.23
13387;BME280;6763;48.524;9.044;2022-12-29T08:35:41;97295.56;;;17.01;37.95
13387;BME280;6763;48.524;9.044;2022-12-29T08:38:07;97296.81;;;17.10;37.53
13387;BME280;6763;48.524;9.044;2022-12-29T08:40:32;97289.44;;;17.18;37.29
13387;BME280;6763;48.524;9.044;2022-12-29T08:42:57;97299.47;;;17.25;36.67
13387;BME280;6763;48.524;9.044;2022-12-29T08:45:23;97293.25;;;17.28;36.64
13387;BME280;6763;48.524;9.044;2022-12-29T08:47:48;97287.38;;;17.40;36.60
13387;BME280;6763;48.524;9.044;2022-12-29T08:50:13;97298.50;;;17.44;36.08
13387;BME280;6763;48.524;9.044;2022-12-29T08:52:39;97294.06;;;17.46;36.20
13387;BME280;6763;48.524;9.044;2022-12-29T08:55:04;97294.81;;;17.48;36.15
13387;BME280;6763;48.524;9.044;2022-12-29T08:57:30;97303.56;;;17.47;36.28
13387;BME280;6763;48.524;9.044;2022-12-29T08:59:55;97291.50;;;17.44;36.53
13387;BME280;6763;48.524;9.044;2022-12-29T09:02:20;97297.66;;;17.43;36.28
13387;BME280;6763;48.524;9.044;2022-12-29T09:04:46;97298.44;;;17.45;36.36
13387;BME280;6763;48.524;9.044;2022-12-29T09:07:11;97297.50;;;17.46;36.35
13387;BME280;6763;48.524;9.044;2022-12-29T09:09:36;97297.28;;;17.51;36.46
13387;BME280;6763;48.524;9.044;2022-12-29T09:12:02;97305.13;;;17.51;36.28
13387;BME280;6763;48.524;9.044;2022-12-29T09:14:27;97313.75;;;17.53;36.53
13387;BME280;6763;48.524;9.044;2022-12-29T09:16:53;97309.97;;;17.58;36.52
13387;BME280;6763;48.524;9.044;2022-12-29T09:19:37;97306.50;;;17.58;36.26
13387;BME280;6763;48.524;9.044;2022-12-29T09:22:03;97312.66;;;17.57;36.36
13387;BME280;6763;48.524;9.044;2022-12-29T09:24:28;97318.53;;;17.45;36.70
13387;BME280;6763;48.524;9.044;2022-12-29T09:26:54;97331.66;;;17.60;36.74
13387;BME280;6763;48.524;9.044;2022-12-29T09:29:19;97329.47;;;17.53;36.81
13387;BME280;6763;48.524;9.044;2022-12-29T09:31:44;97336.81;;;17.62;37.00
13387;BME280;6763;48.524;9.044;2022-12-29T09:34:09;97317.16;;;17.70;36.99
13387;BME280;6763;48.524;9.044;2022-12-29T09:36:35;97328.47;;;17.86;36.90
13387;BME280;6763;48.524;9.044;2022-12-29T09:39:00;97323.41;;;17.99;36.88
13387;BME280;6763;48.524;9.044;2022-12-29T09:42:01;97327.47;;;18.05;36.73
13387;BME280;6763;48.524;9.044;2022-12-29T09:47:02;97331.69;;;18.07;36.77
13387;BME280;6763;48.524;9.044;2022-12-29T09:49:41;97324.69;;;18.08;37.02
13387;BME280;6763;48.524;9.044;2022-12-29T09:52:19;97322.06;;;17.92;37.11
13387;BME280;6763;48.524;9.044;2022-12-29T09:54:53;97325.44;;;17.94;37.14
13387;BME280;6763;48.524;9.044;2022-12-29T09:57:45;97321.63;;;17.84;37.09
13387;BME280;6763;48.524;9.044;2022-12-29T10:00:17;97318.75;;;17.88;37.31
13387;BME280;6763;48.524;9.044;2022-12-29T10:02:46;97319.25;;;17.95;37.39
13387;BME280;6763;48.524;9.044;2022-12-29T10:10:54;97326.09;;;17.97;37.19
13387;BME280;6763;48.524;9.044;2022-12-29T10:13:45;97324.25;;;18.00;37.57
13387;BME280;6763;48.524;9.044;2022-12-29T10:16:22;97324.25;;;18.00;37.65
13387;BME280;6763;48.524;9.044;2022-12-29T10:24:22;97330.16;;;17.87;38.18
13387;BME280;6763;48.524;9.044;2022-12-29T10:26:48;97332.00;;;17.85;37.75
13387;BME280;6763;48.524;9.044;2022-12-29T10:29:19;97331.94;;;17.87;38.03
13387;BME280;6763;48.524;9.044;2022-12-29T10:32:01;97338.50;;;17.78;37.94
13387;BME280;6763;48.524;9.044;2022-12-29T10:34:36;97328.22;;;17.75;38.04
13387;BME280;6763;48.524;9.044;2022-12-29T10:37:05;97331.25;;;17.68;38.61
13387;BME280;6763;48.524;9.044;2022-12-29T10:39:45;97341.41;;;17.74;38.57
13387;BME280;6763;48.524;9.044;2022-12-29T10:42:26;97327.03;;;17.81;38.46
13387;BME280;6763;48.524;9.044;2022-12-29T10:44:54;97333.72;;;17.86;38.39
13387;BME280;6763;48.524;9.044;2022-12-29T10:47:24;97331.84;;;17.88;38.59
13387;BME280;6763;48.524;9.044;2022-12-29T10:49:51;97322.28;;;17.87;38.60
13387;BME280;6763;48.524;9.044;2022-12-29T10:52:19;97325.59;;;17.91;38.44
13387;BME280;6763;48.524;9.044;2022-12-29T10:54:51;97323.13;;;17.88;38.45
13387;BME280;6763;48.524;9.044;2022-12-29T10:57:37;97320.09;;;17.80;38.69
13387;BME280;6763;48.524;9.044;2022-12-29T11:07:49;97329.66;;;17.96;38.99
13387;BME280;6763;48.524;9.044;2022-12-29T11:13:17;97325.91;;;18.01;38.96
13387;BME280;6763;48.524;9.044;2022-12-29T11:15:45;97320.47;;;18.05;38.95
13387;BME280;6763;48.524;9.044;2022-12-29T11:18:24;97330.06;;;18.05;39.05
13387;BME280;6763;48.524;9.044;2022-12-29T11:20:56;97332.19;;;17.98;39.27
13387;BME280;6763;48.524;9.044;2022-12-29T11:23:33;97339.97;;;17.84;39.52
13387;BME280;6763;48.524;9.044;2022-12-29T11:26:22;97339.84;;;17.70;40.60
13387;BME280;6763;48.524;9.044;2022-12-29T11:31:53;97355.84;;;17.48;42.71
13387;BME280;6763;48.524;9.044;2022-12-29T11:34:34;97358.59;;;17.12;44.52
13387;BME280;6763;48.524;9.044;2022-12-29T11:37:15;97369.75;;;16.82;45.91
13387;BME280;6763;48.524;9.044;2022-12-29T11:39:52;97356.22;;;16.73;46.30
13387;BME280;6763;48.524;9.044;2022-12-29T11:42:31;97359.06;;;16.86;46.44
13387;BME280;6763;48.524;9.044;2022-12-29T11:45:06;97349.13;;;17.10;45.97
13387;BME280;6763;48.524;9.044;2022-12-29T11:47:32;97354.44;;;17.41;45.27
13387;BME280;6763;48.524;9.044;2022-12-29T11:50:04;97336.19;;;17.57;44.63
13387;BME280;6763;48.524;9.044;2022-12-29T11:52:33;97348.06;;;17.64;44.77
13387;BME280;6763;48.524;9.044;2022-12-29T11:55:02;97348.81;;;17.66;44.60
13387;BME280;6763;48.524;9.044;2022-12-29T11:57:32;97351.59;;;17.63;44.17
13387;BME280;6763;48.524;9.044;2022-12-29T12:00:01;97341.97;;;17.63;44.40
13387;BME280;6763;48.524;9.044;2022-12-29T12:02:35;97348.22;;;17.61;44.48
13387;BME280;6763;48.524;9.044;2022-12-29T12:05:28;97337.34;;;17.51;44.37
13387;BME280;6763;48.524;9.044;2022-12-29T12:08:04;97335.06;;;17.45;43.92
13387;BME280;6763;48.524;9.044;2022-12-29T12:10:38;97342.13;;;17.43;44.42
13387;BME280;6763;48.524;9.044;2022-12-29T12:15:57;97322.16;;;17.09;44.77
13387;BME280;6763;48.524;9.044;2022-12-29T12:18:40;97335.38;;;17.06;45.04
13387;BME280;6763;48.524;9.044;2022-12-29T12:22:03;97322.31;;;17.06;45.31
13387;BME280;6763;48.524;9.044;2022-12-29T12:26:55;97337.66;;;17.29;45.40
13387;BME280;6763;48.524;9.044;2022-12-29T12:29:33;97340.91;;;17.50;45.36
13387;BME280;6763;48.524;9.044;2022-12-29T12:32:13;97332.19;;;17.50;45.31
13387;BME280;6763;48.524;9.044;2022-12-29T12:34:45;97337.53;;;17.48;45.47
13387;BME280;6763;48.524;9.044;2022-12-29T12:40:34;97350.06;;;17.42;46.22
13387;BME280;6763;48.524;9.044;2022-12-29T12:51:32;97327.75;;;17.19;47.71
13387;BME280;6763;48.524;9.044;2022-12-29T12:56:33;97329.53;;;17.01;48.22
13387;BME280;6763;48.524;9.044;2022-12-29T12:59:15;97330.06;;;17.08;48.39
13387;BME280;6763;48.524;9.044;2022-12-29T13:05:02;97312.16;;;17.00;48.20
13387;BME280;6763;48.524;9.044;2022-12-29T13:13:09;97303.47;;;17.32;47.17
13387;BME280;6763;48.524;9.044;2022-12-29T13:20:46;97297.22;;;17.68;45.77
13387;BME280;6763;48.524;9.044;2022-12-29T13:23:37;97291.88;;;17.54;45.70
13387;BME280;6763;48.524;9.044;2022-12-29T13:26:28;97289.03;;;17.58;45.67
13387;BME280;6763;48.524;9.044;2022-12-29T13:29:20;97294.25;;;17.58;45.77
13387;BME280;6763;48.524;9.044;2022-12-29T13:31:54;97288.69;;;17.64;45.52
13387;BME280;6763;48.524;9.044;2022-12-29T13:34:28;97291.88;;;17.69;45.46
13387;BME280;6763;48.524;9.044;2022-12-29T13:37:04;97285.56;;;17.73;44.97
13387;BME280;6763;48.524;9.044;2022-12-29T13:39:47;97284.56;;;17.91;44.64
13387;BME280;6763;48.524;9.044;2022-12-29T13:42:16;97283.53;;;18.10;44.23
13387;BME280;6763;48.524;9.044;2022-12-29T13:44:47;97285.69;;;18.17;43.95
13387;BME280;6763;48.524;9.044;2022-12-29T13:49:42;97283.78;;;18.05;43.73
13387;BME280;6763;48.524;9.044;2022-12-29T14:00:12;97279.13;;;18.85;42.28
13387;BME280;6763;48.524;9.044;2022-12-29T14:03:03;97278.66;;;19.21;41.02
13387;BME280;6763;48.524;9.044;2022-12-29T14:05:35;97283.06;;;19.20;41.13
13387;BME280;6763;48.524;9.044;2022-12-29T14:08:05;97276.78;;;19.23;41.00
13387;BME280;6763;48.524;9.044;2022-12-29T14:10:45;97276.34;;;19.16;41.10
13387;BME280;6763;48.524;9.044;2022-12-29T14:13:15;97274.44;;;19.04;41.19
13387;BME280;6763;48.524;9.044;2022-12-29T14:15:53;97265.72;;;18.90;41.51
13387;BME280;6763;48.524;9.044;2022-12-29T14:18:21;97267.59;;;19.02;40.86
13387;BME280;6763;48.524;9.044;2022-12-29T14:21:08;97258.41;;;18.95;40.62
13387;BME280;6763;48.524;9.044;2022-12-29T14:23:42;97250.06;;;18.74;41.09
13387;BME280;6763;48.524;9.044;2022-12-29T14:28:55;97259.91;;;18.25;42.24
13387;BME280;6763;48.524;9.044;2022-12-29T14:36:41;97265.47;;;17.74;42.99
13387;BME280;6763;48.524;9.044;2022-12-29T14:42:03;97277.88;;;17.55;42.98
13387;BME280;6763;48.524;9.044;2022-12-29T14:44:30;97272.13;;;17.48;43.27
13387;BME280;6763;48.524;9.044;2022-12-29T14:47:00;97276.22;;;17.36;43.36
13387;BME280;6763;48.524;9.044;2022-12-29T14:49:32;97286.41;;;17.25;43.67
13387;BME280;6763;48.524;9.044;2022-12-29T14:52:12;97283.53;;;17.14;44.06
13387;BME280;6763;48.524;9.044;2022-12-29T14:57:11;97278.91;;;17.19;43.40
13387;BME280;6763;48.524;9.044;2022-12-29T14:59:39;97285.28;;;17.14;43.79
13387;BME280;6763;48.524;9.044;2022-12-29T15:02:14;97292.53;;;17.09;43.59
13387;BME280;6763;48.524;9.044;2022-12-29T15:04:41;97285.44;;;17.11;43.56
13387;BME280;6763;48.524;9.044;2022-12-29T15:07:09;97283.69;;;17.11;43.19
13387;BME280;6763;48.524;9.044;2022-12-29T15:09:50;97302.06;;;17.10;43.16
13387;BME280;6763;48.524;9.044;2022-12-29T15:14:51;97294.72;;;17.01;43.18
13387;BME280;6763;48.524;9.044;2022-12-29T15:17:29;97296.56;;;16.99;43.21
13387;BME280;6763;48.524;9.044;2022-12-29T15:19:57;97294.25;;;16.93;43.21
13387;BME280;6763;48.524;9.044;2022-12-29T15:22:24;97313.72;;;16.87;43.31
13387;BME280;6763;48.524;9.044;2022-12-29T15:24:51;97309.41;;;16.86;43.54
13387;BME280;6763;48.524;9.044;2022-12-29T15:27:25;97308.47;;;16.87;43.30
13387;BME280;6763;48.524;9.044;2022-12-29T15:29:59;97303.25;;;16.87;43.10